Ora Direzione Vento Velocita' Vento Media Vento Raffica Max. Temperatura Wind Chill Pioggia Pressione
01:18:42.0230 °(SW)0.0 Kts0.9 Kts5.2 Kts23.9 °C23.9 °C0.0 mm911.9 Hpa
00:57:26.0134 °(SE)1.7 Kts1.7 Kts5.2 Kts24.0 °C24.0 °C0.0 mm911.2 Hpa
00:38:38.0207 °(SSW)0.0 Kts0.0 Kts1.7 Kts24.2 °C24.2 °C0.0 mm912.0 Hpa
00:17:43.0240 °(WSW)0.9 Kts0.0 Kts1.7 Kts24.6 °C24.6 °C0.0 mm912.0 Hpa
23:56:47.0224 °(SW)0.0 Kts0.9 Kts12.2 Kts25.6 °C25.6 °C0.0 mm912.2 Hpa
23:35:40.0233 °(SW)0.9 Kts0.9 Kts12.2 Kts25.7 °C25.7 °C0.0 mm912.0 Hpa
23:16:44.0162 °(SSE)0.0 Kts0.0 Kts12.2 Kts25.7 °C25.7 °C0.0 mm912.3 Hpa
22:57:48.0177 °(S)0.9 Kts0.9 Kts12.2 Kts25.7 °C25.7 °C0.0 mm912.4 Hpa
22:36:44.0176 °(S)0.9 Kts0.0 Kts12.2 Kts26.8 °C26.8 °C0.0 mm911.2 Hpa
22:17:51.0144 °(SE)0.0 Kts0.0 Kts12.2 Kts27.1 °C27.1 °C0.0 mm910.7 Hpa
21:56:42.098 °(E)2.6 Kts3.5 Kts12.2 Kts27.4 °C27.4 °C0.0 mm911.0 Hpa
21:37:49.098 °(E)4.3 Kts5.2 Kts12.2 Kts27.5 °C27.0 °C0.0 mm910.2 Hpa
21:16:47.0119 °(ESE)4.3 Kts5.2 Kts12.2 Kts27.4 °C26.9 °C0.0 mm910.0 Hpa
20:57:45.0105 °(ESE)6.1 Kts6.1 Kts12.2 Kts27.4 °C26.7 °C0.0 mm909.8 Hpa
20:38:39.0110 °(ESE)7.0 Kts6.1 Kts12.2 Kts27.6 °C26.9 °C0.0 mm910.0 Hpa
20:17:22.0119 °(ESE)5.2 Kts5.2 Kts12.2 Kts27.8 °C27.3 °C0.0 mm909.3 Hpa
19:58:03.0113 °(ESE)5.2 Kts5.2 Kts12.2 Kts28.0 °C27.5 °C0.0 mm909.9 Hpa
19:36:49.0109 °(ESE)6.1 Kts7.0 Kts12.2 Kts28.1 °C27.2 °C0.0 mm909.7 Hpa
19:17:47.0120 °(ESE)6.1 Kts8.7 Kts12.2 Kts28.3 °C27.2 °C0.0 mm909.7 Hpa
18:58:43.0105 °(ESE)7.8 Kts8.7 Kts12.2 Kts28.3 °C27.2 °C0.0 mm909.9 Hpa